sensor_id;sensor_type;location;lat;lon;timestamp;pressure;altitude;pressure_sealevel;temperature;humidity
76106;BME280;64832;45.274;5.880;2023-11-19T00:02:21;99674.41;;;21.11;50.36
76106;BME280;64832;45.274;5.880;2023-11-19T00:04:47;99673.81;;;21.09;50.48
76106;BME280;64832;45.274;5.880;2023-11-19T00:07:12;99672.16;;;21.08;50.39
76106;BME280;64832;45.274;5.880;2023-11-19T00:09:39;99664.88;;;21.02;50.61
76106;BME280;64832;45.274;5.880;2023-11-19T00:12:08;99662.09;;;21.08;50.45
76106;BME280;64832;45.274;5.880;2023-11-19T00:14:33;99660.66;;;21.06;50.55
76106;BME280;64832;45.274;5.880;2023-11-19T00:17:00;99655.44;;;21.04;50.48
76106;BME280;64832;45.274;5.880;2023-11-19T00:19:25;99660.88;;;21.04;50.35
76106;BME280;64832;45.274;5.880;2023-11-19T00:21:51;99646.94;;;21.01;50.36
76106;BME280;64832;45.274;5.880;2023-11-19T00:24:17;99654.00;;;21.02;50.53
76106;BME280;64832;45.274;5.880;2023-11-19T00:26:42;99648.81;;;21.00;50.79
76106;BME280;64832;45.274;5.880;2023-11-19T00:29:08;99643.59;;;20.99;50.47
76106;BME280;64832;45.274;5.880;2023-11-19T00:31:33;99636.53;;;20.98;50.79
76106;BME280;64832;45.274;5.880;2023-11-19T00:33:59;99641.97;;;20.98;50.61
76106;BME280;64832;45.274;5.880;2023-11-19T00:36:24;99639.00;;;20.99;50.63
76106;BME280;64832;45.274;5.880;2023-11-19T00:38:51;99638.41;;;20.97;50.56
76106;BME280;64832;45.274;5.880;2023-11-19T00:41:18;99630.00;;;20.99;50.76
76106;BME280;64832;45.274;5.880;2023-11-19T00:43:43;99637.56;;;20.97;50.40
76106;BME280;64832;45.274;5.880;2023-11-19T00:46:09;99646.81;;;20.96;50.77
76106;BME280;64832;45.274;5.880;2023-11-19T00:48:36;99639.72;;;20.95;50.95
76106;BME280;64832;45.274;5.880;2023-11-19T00:51:01;99638.50;;;20.91;51.01
76106;BME280;64832;45.274;5.880;2023-11-19T00:53:27;99642.91;;;20.92;51.09
76106;BME280;64832;45.274;5.880;2023-11-19T00:55:52;99640.63;;;20.89;51.07
76106;BME280;64832;45.274;5.880;2023-11-19T00:58:18;99650.00;;;20.93;51.11
76106;BME280;64832;45.274;5.880;2023-11-19T01:00:43;99643.00;;;20.85;51.26
76106;BME280;64832;45.274;5.880;2023-11-19T01:03:10;99646.34;;;20.87;51.38
76106;BME280;64832;45.274;5.880;2023-11-19T01:05:35;99645.03;;;20.90;51.46
76106;BME280;64832;45.274;5.880;2023-11-19T01:08:00;99635.44;;;20.87;51.66
76106;BME280;64832;45.274;5.880;2023-11-19T01:10:26;99628.59;;;20.85;51.67
76106;BME280;64832;45.274;5.880;2023-11-19T01:12:51;99623.97;;;20.85;51.66
76106;BME280;64832;45.274;5.880;2023-11-19T01:15:17;99625.03;;;20.84;51.97
76106;BME280;64832;45.274;5.880;2023-11-19T01:17:44;99619.81;;;20.83;51.92
76106;BME280;64832;45.274;5.880;2023-11-19T01:20:09;99619.81;;;20.83;52.23
76106;BME280;64832;45.274;5.880;2023-11-19T01:22:37;99608.94;;;20.83;52.14
76106;BME280;64832;45.274;5.880;2023-11-19T01:25:03;99610.81;;;20.82;52.05
76106;BME280;64832;45.274;5.880;2023-11-19T01:27:30;99602.09;;;20.80;52.10
76106;BME280;64832;45.274;5.880;2023-11-19T01:29:56;99607.78;;;20.79;52.24
76106;BME280;64832;45.274;5.880;2023-11-19T01:32:21;99606.94;;;20.78;52.29
76106;BME280;64832;45.274;5.880;2023-11-19T01:34:49;99599.63;;;20.79;52.27
76106;BME280;64832;45.274;5.880;2023-11-19T01:37:14;99598.78;;;20.78;52.36
76106;BME280;64832;45.274;5.880;2023-11-19T01:39:40;99592.97;;;20.75;52.51
76106;BME280;64832;45.274;5.880;2023-11-19T01:42:05;99597.38;;;20.76;52.41
76106;BME280;64832;45.274;5.880;2023-11-19T01:44:30;99587.78;;;20.73;52.37
76106;BME280;64832;45.274;5.880;2023-11-19T01:46:57;99589.09;;;20.71;52.33
76106;BME280;64832;45.274;5.880;2023-11-19T01:49:23;99590.50;;;20.73;52.49
76106;BME280;64832;45.274;5.880;2023-11-19T01:51:49;99594.28;;;20.72;52.60
76106;BME280;64832;45.274;5.880;2023-11-19T01:54:14;99593.91;;;20.69;52.63
76106;BME280;64832;45.274;5.880;2023-11-19T01:56:41;99600.19;;;20.69;52.45
76106;BME280;64832;45.274;5.880;2023-11-19T01:59:08;99603.16;;;20.68;52.54
76106;BME280;64832;45.274;5.880;2023-11-19T02:01:35;99593.91;;;20.69;52.65
76106;BME280;64832;45.274;5.880;2023-11-19T02:04:05;99603.38;;;20.66;52.52
76106;BME280;64832;45.274;5.880;2023-11-19T02:06:33;99601.72;;;20.65;52.64
76106;BME280;64832;45.274;5.880;2023-11-19T02:08:59;99604.66;;;20.64;52.54
76106;BME280;64832;45.274;5.880;2023-11-19T02:11:25;99613.44;;;20.66;52.81
76106;BME280;64832;45.274;5.880;2023-11-19T02:13:55;99614.69;;;20.63;52.96
76106;BME280;64832;45.274;5.880;2023-11-19T02:16:21;99599.69;;;20.61;53.04
76106;BME280;64832;45.274;5.880;2023-11-19T02:18:46;99614.69;;;20.63;52.92
76106;BME280;64832;45.274;5.880;2023-11-19T02:21:11;99610.34;;;20.62;53.09
76106;BME280;64832;45.274;5.880;2023-11-19T02:23:37;99605.38;;;20.59;52.96
76106;BME280;64832;45.274;5.880;2023-11-19T02:28:33;99608.69;;;20.61;53.44
76106;BME280;64832;45.274;5.880;2023-11-19T02:30:59;99612.47;;;20.60;53.12
76106;BME280;64832;45.274;5.880;2023-11-19T02:33:24;99608.94;;;20.60;53.56
76106;BME280;64832;45.274;5.880;2023-11-19T02:35:50;99608.09;;;20.59;53.55
76106;BME280;64832;45.274;5.880;2023-11-19T02:38:16;99605.59;;;20.58;53.48
76106;BME280;64832;45.274;5.880;2023-11-19T02:40:41;99610.44;;;20.56;53.53
76106;BME280;64832;45.274;5.880;2023-11-19T02:43:07;99613.16;;;20.56;53.47
76106;BME280;64832;45.274;5.880;2023-11-19T02:45:33;99604.16;;;20.55;53.75
76106;BME280;64832;45.274;5.880;2023-11-19T02:47:59;99606.88;;;20.55;53.89
76106;BME280;64832;45.274;5.880;2023-11-19T02:50:26;99602.75;;;20.52;53.93
76106;BME280;64832;45.274;5.880;2023-11-19T02:52:55;99595.69;;;20.52;53.93
76106;BME280;64832;45.274;5.880;2023-11-19T02:55:21;99599.19;;;20.52;53.98
76106;BME280;64832;45.274;5.880;2023-11-19T02:57:48;99585.75;;;20.45;54.06
76106;BME280;64832;45.274;5.880;2023-11-19T03:00:16;99594.84;;;20.51;54.36
76106;BME280;64832;45.274;5.880;2023-11-19T03:02:42;99587.53;;;20.52;54.47
76106;BME280;64832;45.274;5.880;2023-11-19T03:05:15;99582.91;;;20.52;54.28
76106;BME280;64832;45.274;5.880;2023-11-19T03:07:42;99591.03;;;20.52;54.21
76106;BME280;64832;45.274;5.880;2023-11-19T03:10:09;99591.03;;;20.52;54.50
76106;BME280;64832;45.274;5.880;2023-11-19T03:12:37;99591.28;;;20.50;54.41
76106;BME280;64832;45.274;5.880;2023-11-19T03:15:03;99593.19;;;20.50;54.48
76106;BME280;64832;45.274;5.880;2023-11-19T03:17:29;99595.06;;;20.49;54.66
76106;BME280;64832;45.274;5.880;2023-11-19T03:19:54;99596.16;;;20.48;54.52
76106;BME280;64832;45.274;5.880;2023-11-19T03:22:19;99590.94;;;20.47;54.50
76106;BME280;64832;45.274;5.880;2023-11-19T03:24:46;99592.00;;;20.46;54.57
76106;BME280;64832;45.274;5.880;2023-11-19T03:27:11;99592.22;;;20.44;54.69
76106;BME280;64832;45.274;5.880;2023-11-19T03:29:37;99596.59;;;20.45;54.57
76106;BME280;64832;45.274;5.880;2023-11-19T03:32:04;99593.88;;;20.45;54.76
76106;BME280;64832;45.274;5.880;2023-11-19T03:34:29;99587.25;;;20.41;54.81
76106;BME280;64832;45.274;5.880;2023-11-19T03:36:54;99573.53;;;20.36;54.77
76106;BME280;64832;45.274;5.880;2023-11-19T03:39:21;99580.75;;;20.42;54.80
76106;BME280;64832;45.274;5.880;2023-11-19T03:41:50;99571.19;;;20.40;54.83
76106;BME280;64832;45.274;5.880;2023-11-19T03:44:15;99564.09;;;20.39;54.95
76106;BME280;64832;45.274;5.880;2023-11-19T03:46:40;99558.06;;;20.37;54.81
76106;BME280;64832;45.274;5.880;2023-11-19T03:49:06;99561.38;;;20.39;55.06
76106;BME280;64832;45.274;5.880;2023-11-19T03:51:32;99561.63;;;20.37;54.74
76106;BME280;64832;45.274;5.880;2023-11-19T03:53:57;99564.34;;;20.37;54.81
76106;BME280;64832;45.274;5.880;2023-11-19T03:56:24;99557.69;;;20.33;55.09
76106;BME280;64832;45.274;5.880;2023-11-19T03:58:49;99556.06;;;20.32;55.05
76106;BME280;64832;45.274;5.880;2023-11-19T04:01:15;99566.69;;;20.34;55.29
76106;BME280;64832;45.274;5.880;2023-11-19T04:03:40;99566.94;;;20.32;55.20
76106;BME280;64832;45.274;5.880;2023-11-19T04:06:06;99564.22;;;20.32;55.36
76106;BME280;64832;45.274;5.880;2023-11-19T04:08:31;99567.16;;;20.31;55.35
76106;BME280;64832;45.274;5.880;2023-11-19T04:10:57;99573.41;;;20.31;55.46
76106;BME280;64832;45.274;5.880;2023-11-19T04:13:22;99574.47;;;20.30;55.44
76106;BME280;64832;45.274;5.880;2023-11-19T04:15:49;99577.19;;;20.30;55.16
76106;BME280;64832;45.274;5.880;2023-11-19T04:18:15;99573.88;;;20.28;55.26
76106;BME280;64832;45.274;5.880;2023-11-19T04:20:41;99568.28;;;20.23;55.33
76106;BME280;64832;45.274;5.880;2023-11-19T04:23:08;99570.78;;;20.25;55.39
76106;BME280;64832;45.274;5.880;2023-11-19T04:25:33;99576.22;;;20.25;55.61
76106;BME280;64832;45.274;5.880;2023-11-19T04:27:59;99577.63;;;20.27;55.46
76106;BME280;64832;45.274;5.880;2023-11-19T04:30:25;99578.72;;;20.26;55.67
76106;BME280;64832;45.274;5.880;2023-11-19T04:32:50;99578.94;;;20.25;55.50
76106;BME280;64832;45.274;5.880;2023-11-19T04:35:15;99571.84;;;20.24;55.27
76106;BME280;64832;45.274;5.880;2023-11-19T04:37:42;99580.19;;;20.22;55.43
76106;BME280;64832;45.274;5.880;2023-11-19T04:40:07;99576.44;;;20.23;55.44
76106;BME280;64832;45.274;5.880;2023-11-19T04:42:32;99571.84;;;20.24;55.45
76106;BME280;64832;45.274;5.880;2023-11-19T04:44:58;99567.44;;;20.23;55.30
76106;BME280;64832;45.274;5.880;2023-11-19T04:47:23;99559.75;;;20.20;55.56
76106;BME280;64832;45.274;5.880;2023-11-19T04:49:49;99564.16;;;20.21;55.51
76106;BME280;64832;45.274;5.880;2023-11-19T04:52:14;99567.91;;;20.20;55.30
76106;BME280;64832;45.274;5.880;2023-11-19T04:54:43;99575.84;;;20.21;55.38
76106;BME280;64832;45.274;5.880;2023-11-19T04:57:09;99566.94;;;20.14;55.40
76106;BME280;64832;45.274;5.880;2023-11-19T04:59:37;99568.97;;;20.19;55.32
76106;BME280;64832;45.274;5.880;2023-11-19T05:02:03;99560.09;;;20.12;55.45
76106;BME280;64832;45.274;5.880;2023-11-19T05:04:29;99567.31;;;20.18;55.59
76106;BME280;64832;45.274;5.880;2023-11-19T05:06:54;99562.09;;;20.16;55.28
76106;BME280;64832;45.274;5.880;2023-11-19T05:09:20;99560.22;;;20.17;55.65
76106;BME280;64832;45.274;5.880;2023-11-19T05:11:45;99550.66;;;20.14;55.50
76106;BME280;64832;45.274;5.880;2023-11-19T05:14:11;99536.47;;;20.12;55.61
76106;BME280;64832;45.274;5.880;2023-11-19T05:16:39;99553.38;;;20.14;55.69
76106;BME280;64832;45.274;5.880;2023-11-19T05:19:04;99541.09;;;20.12;55.54
76106;BME280;64832;45.274;5.880;2023-11-19T05:21:30;99553.38;;;20.14;55.57
76106;BME280;64832;45.274;5.880;2023-11-19T05:23:55;99547.34;;;20.12;55.91
76106;BME280;64832;45.274;5.880;2023-11-19T05:26:23;99552.31;;;20.15;55.88
76106;BME280;64832;45.274;5.880;2023-11-19T05:28:49;99545.22;;;20.14;56.06
76106;BME280;64832;45.274;5.880;2023-11-19T05:31:16;99546.06;;;20.15;56.07
76106;BME280;64832;45.274;5.880;2023-11-19T05:33:42;99554.41;;;20.13;56.08
76106;BME280;64832;45.274;5.880;2023-11-19T05:36:08;99544.84;;;20.11;56.04
76106;BME280;64832;45.274;5.880;2023-11-19T05:38:36;99548.66;;;20.10;55.97
76106;BME280;64832;45.274;5.880;2023-11-19T05:41:02;99555.13;;;20.09;55.79
76106;BME280;64832;45.274;5.880;2023-11-19T05:43:28;99550.78;;;20.08;56.16
76106;BME280;64832;45.274;5.880;2023-11-19T05:45:53;99554.41;;;20.02;55.77
76106;BME280;64832;45.274;5.880;2023-11-19T05:48:18;99562.91;;;20.05;55.99
76106;BME280;64832;45.274;5.880;2023-11-19T05:50:44;99546.84;;;20.04;56.51
76106;BME280;64832;45.274;5.880;2023-11-19T05:53:10;99547.44;;;20.06;56.33
76106;BME280;64832;45.274;5.880;2023-11-19T05:55:38;99548.28;;;20.06;56.14
76106;BME280;64832;45.274;5.880;2023-11-19T05:58:11;99537.03;;;20.03;56.01
76106;BME280;64832;45.274;5.880;2023-11-19T06:00:41;99542.47;;;20.03;56.19
76106;BME280;64832;45.274;5.880;2023-11-19T06:03:09;99543.31;;;20.03;56.25
76106;BME280;64832;45.274;5.880;2023-11-19T06:05:34;99532.31;;;19.98;56.22
76106;BME280;64832;45.274;5.880;2023-11-19T06:08:00;99542.47;;;20.03;56.40
76106;BME280;64832;45.274;5.880;2023-11-19T06:10:25;99536.44;;;20.01;56.35
76106;BME280;64832;45.274;5.880;2023-11-19T06:12:58;99529.13;;;20.01;56.56
76106;BME280;64832;45.274;5.880;2023-11-19T06:15:25;99530.19;;;20.00;56.73
76106;BME280;64832;45.274;5.880;2023-11-19T06:17:51;99531.84;;;20.01;56.68
76106;BME280;64832;45.274;5.880;2023-11-19T06:20:16;99529.59;;;19.98;56.85
76106;BME280;64832;45.274;5.880;2023-11-19T06:22:42;99531.25;;;19.99;56.91
76106;BME280;64832;45.274;5.880;2023-11-19T06:25:09;99532.91;;;20.00;57.02
76106;BME280;64832;45.274;5.880;2023-11-19T06:27:34;99533.97;;;19.99;56.94
76106;BME280;64832;45.274;5.880;2023-11-19T06:30:01;99535.03;;;19.98;56.72
76106;BME280;64832;45.274;5.880;2023-11-19T06:32:26;99532.31;;;19.98;56.89
76106;BME280;64832;45.274;5.880;2023-11-19T06:34:51;99540.44;;;19.98;56.86
76106;BME280;64832;45.274;5.880;2023-11-19T06:37:17;99533.34;;;19.97;57.10
76106;BME280;64832;45.274;5.880;2023-11-19T06:39:42;99527.13;;;19.97;56.98
76106;BME280;64832;45.274;5.880;2023-11-19T06:42:08;99519.44;;;19.93;57.14
76106;BME280;64832;45.274;5.880;2023-11-19T06:44:33;99510.31;;;19.88;56.73
76106;BME280;64832;45.274;5.880;2023-11-19T06:46:59;99518.59;;;19.93;57.02
76106;BME280;64832;45.274;5.880;2023-11-19T06:49:24;99515.06;;;19.92;57.13
76106;BME280;64832;45.274;5.880;2023-11-19T06:51:50;99523.44;;;19.91;57.35
76106;BME280;64832;45.274;5.880;2023-11-19T06:54:15;99520.09;;;19.89;57.17
76106;BME280;64832;45.274;5.880;2023-11-19T06:56:41;99528.88;;;19.91;57.08
76106;BME280;64832;45.274;5.880;2023-11-19T06:59:07;99527.41;;;19.88;57.05
76106;BME280;64832;45.274;5.880;2023-11-19T07:01:36;99524.72;;;19.88;57.30
76106;BME280;64832;45.274;5.880;2023-11-19T07:04:02;99513.03;;;19.88;57.42
76106;BME280;64832;45.274;5.880;2023-11-19T07:06:33;99514.34;;;19.85;57.17
76106;BME280;64832;45.274;5.880;2023-11-19T07:08:58;99512.66;;;19.84;57.34
76106;BME280;64832;45.274;5.880;2023-11-19T07:11:24;99509.13;;;19.84;57.32
76106;BME280;64832;45.274;5.880;2023-11-19T07:13:49;99506.88;;;19.81;57.16
76106;BME280;64832;45.274;5.880;2023-11-19T07:16:15;99516.44;;;19.83;57.24
76106;BME280;64832;45.274;5.880;2023-11-19T07:18:40;99509.00;;;19.79;57.28
76106;BME280;64832;45.274;5.880;2023-11-19T07:21:07;99508.75;;;19.80;57.26
76106;BME280;64832;45.274;5.880;2023-11-19T07:23:35;99518.19;;;19.78;57.18
76106;BME280;64832;45.274;5.880;2023-11-19T07:26:01;99511.69;;;19.79;57.15
76106;BME280;64832;45.274;5.880;2023-11-19T07:28:26;99513.59;;;19.78;57.14
76106;BME280;64832;45.274;5.880;2023-11-19T07:30:54;99514.88;;;19.76;57.24
76106;BME280;64832;45.274;5.880;2023-11-19T07:33:21;99513.59;;;19.78;57.20
76106;BME280;64832;45.274;5.880;2023-11-19T07:35:46;99517.00;;;19.74;57.26
76106;BME280;64832;45.274;5.880;2023-11-19T07:38:11;99514.88;;;19.76;57.42
76106;BME280;64832;45.274;5.880;2023-11-19T07:40:37;99513.66;;;19.72;57.40
76106;BME280;64832;45.274;5.880;2023-11-19T07:43:02;99519.09;;;19.72;57.51
76106;BME280;64832;45.274;5.880;2023-11-19T07:45:27;99513.44;;;19.73;57.52
76106;BME280;64832;45.274;5.880;2023-11-19T07:47:53;99524.31;;;19.73;57.50
76106;BME280;64832;45.274;5.880;2023-11-19T07:50:19;99525.97;;;19.74;57.46
76106;BME280;64832;45.274;5.880;2023-11-19T07:52:45;99527.03;;;19.73;57.46
76106;BME280;64832;45.274;5.880;2023-11-19T07:55:10;99528.91;;;19.73;57.64
76106;BME280;64832;45.274;5.880;2023-11-19T07:57:36;99521.69;;;19.67;57.71
76106;BME280;64832;45.274;5.880;2023-11-19T08:00:02;99529.16;;;19.71;57.36
76106;BME280;64832;45.274;5.880;2023-11-19T08:02:28;99528.06;;;19.72;57.48
76106;BME280;64832;45.274;5.880;2023-11-19T08:04:53;99527.72;;;19.69;57.67
76106;BME280;64832;45.274;5.880;2023-11-19T08:07:20;99538.94;;;19.72;57.53
76106;BME280;64832;45.274;5.880;2023-11-19T08:09:46;99534.19;;;19.68;57.80
76106;BME280;64832;45.274;5.880;2023-11-19T08:12:11;99546.28;;;19.54;50.63
76106;BME280;64832;45.274;5.880;2023-11-19T08:14:39;99548.16;;;19.17;48.38
76106;BME280;64832;45.274;5.880;2023-11-19T08:17:04;99546.41;;;18.86;47.68
76106;BME280;64832;45.274;5.880;2023-11-19T08:19:29;99557.44;;;18.66;47.46
76106;BME280;64832;45.274;5.880;2023-11-19T08:21:55;99553.84;;;18.48;46.73
76106;BME280;64832;45.274;5.880;2023-11-19T08:24:20;99559.44;;;18.22;46.18
76106;BME280;64832;45.274;5.880;2023-11-19T08:26:45;99559.81;;;18.00;46.26
76106;BME280;64832;45.274;5.880;2023-11-19T08:29:11;99560.28;;;17.84;46.45
76106;BME280;64832;45.274;5.880;2023-11-19T08:31:36;99559.53;;;17.71;46.25
76106;BME280;64832;45.274;5.880;2023-11-19T08:34:01;99550.88;;;17.55;46.10
76106;BME280;64832;45.274;5.880;2023-11-19T08:36:27;99537.84;;;17.33;46.66
76106;BME280;64832;45.274;5.880;2023-11-19T08:38:53;99549.09;;;17.23;46.92
76106;BME280;64832;45.274;5.880;2023-11-19T08:41:19;99538.31;;;17.10;48.24
76106;BME280;64832;45.274;5.880;2023-11-19T08:43:44;99547.41;;;17.29;50.35
76106;BME280;64832;45.274;5.880;2023-11-19T08:46:11;99545.25;;;17.50;50.16
76106;BME280;64832;45.274;5.880;2023-11-19T08:48:36;99557.84;;;17.76;50.27
76106;BME280;64832;45.274;5.880;2023-11-19T08:51:02;99556.09;;;17.95;50.49
76106;BME280;64832;45.274;5.880;2023-11-19T08:53:28;99548.72;;;18.08;50.30
76106;BME280;64832;45.274;5.880;2023-11-19T08:55:53;99547.38;;;18.17;50.33
76106;BME280;64832;45.274;5.880;2023-11-19T08:58:18;99550.22;;;18.29;50.00
76106;BME280;64832;45.274;5.880;2023-11-19T09:00:44;99555.34;;;18.37;49.91
76106;BME280;64832;45.274;5.880;2023-11-19T09:03:09;99555.50;;;18.42;50.49
76106;BME280;64832;45.274;5.880;2023-11-19T09:05:34;99548.22;;;18.49;50.32
76106;BME280;64832;45.274;5.880;2023-11-19T09:08:00;99551.06;;;18.54;50.33
76106;BME280;64832;45.274;5.880;2023-11-19T09:10:25;99539.56;;;18.59;50.78
76106;BME280;64832;45.274;5.880;2023-11-19T09:12:52;99540.56;;;18.64;50.87
76106;BME280;64832;45.274;5.880;2023-11-19T09:15:17;99534.53;;;18.62;50.97
76106;BME280;64832;45.274;5.880;2023-11-19T09:17:43;99532.75;;;18.74;50.89
76106;BME280;64832;45.274;5.880;2023-11-19T09:20:08;99542.53;;;18.75;50.71
76106;BME280;64832;45.274;5.880;2023-11-19T09:22:37;99540.66;;;18.76;50.71
76106;BME280;64832;45.274;5.880;2023-11-19T09:25:02;99543.97;;;18.78;50.77
76106;BME280;64832;45.274;5.880;2023-11-19T09:27:28;99543.38;;;18.76;50.72
76106;BME280;64832;45.274;5.880;2023-11-19T09:29:54;99530.22;;;18.80;50.71
76106;BME280;64832;45.274;5.880;2023-11-19T09:32:22;99532.69;;;18.81;50.82
76106;BME280;64832;45.274;5.880;2023-11-19T09:34:48;99530.34;;;18.85;50.65
76106;BME280;64832;45.274;5.880;2023-11-19T09:37:13;99534.50;;;18.87;50.85
76106;BME280;64832;45.274;5.880;2023-11-19T09:39:38;99530.31;;;18.91;50.42
76106;BME280;64832;45.274;5.880;2023-11-19T09:42:05;99527.34;;;18.93;50.76
76106;BME280;64832;45.274;5.880;2023-11-19T09:44:31;99532.09;;;18.97;50.81
76106;BME280;64832;45.274;5.880;2023-11-19T09:46:58;99523.38;;;18.95;50.76
76106;BME280;64832;45.274;5.880;2023-11-19T09:49:26;99542.66;;;19.05;50.83
76106;BME280;64832;45.274;5.880;2023-11-19T09:51:52;99538.69;;;19.08;50.85
76106;BME280;64832;45.274;5.880;2023-11-19T09:54:18;99536.31;;;19.11;50.97
76106;BME280;64832;45.274;5.880;2023-11-19T09:56:43;99532.56;;;19.12;50.81
76106;BME280;64832;45.274;5.880;2023-11-19T09:59:09;99536.50;;;19.16;50.72
76106;BME280;64832;45.274;5.880;2023-11-19T10:01:37;99520.44;;;19.15;50.60
76106;BME280;64832;45.274;5.880;2023-11-19T10:04:03;99539.94;;;19.23;50.64
76106;BME280;64832;45.274;5.880;2023-11-19T10:06:28;99528.84;;;19.25;50.72
76106;BME280;64832;45.274;5.880;2023-11-19T10:08:54;99532.53;;;19.30;50.84
76106;BME280;64832;45.274;5.880;2023-11-19T10:11:20;99534.34;;;19.36;50.89
76106;BME280;64832;45.274;5.880;2023-11-19T10:13:46;99520.38;;;19.40;50.89
76106;BME280;64832;45.274;5.880;2023-11-19T10:16:13;99512.81;;;19.42;50.73
76106;BME280;64832;45.274;5.880;2023-11-19T10:18:45;99514.63;;;19.48;50.58
76106;BME280;64832;45.274;5.880;2023-11-19T10:21:12;99505.00;;;19.52;50.60
76106;BME280;64832;45.274;5.880;2023-11-19T10:26:13;99494.41;;;19.62;50.82
76106;BME280;64832;45.274;5.880;2023-11-19T10:28:39;99486.03;;;19.63;50.63
76106;BME280;64832;45.274;5.880;2023-11-19T10:31:07;99494.06;;;19.70;50.54
76106;BME280;64832;45.274;5.880;2023-11-19T10:33:33;99471.31;;;19.71;50.43
76106;BME280;64832;45.274;5.880;2023-11-19T10:35:58;99471.44;;;19.76;50.42
76106;BME280;64832;45.274;5.880;2023-11-19T10:38:25;99471.34;;;19.82;50.27
76106;BME280;64832;45.274;5.880;2023-11-19T10:40:51;99474.41;;;19.86;50.10
76106;BME280;64832;45.274;5.880;2023-11-19T10:43:20;99461.22;;;19.89;50.28
76106;BME280;64832;45.274;5.880;2023-11-19T10:45:47;99462.88;;;19.90;50.40
76106;BME280;64832;45.274;5.880;2023-11-19T10:48:13;99462.16;;;19.95;50.37
76106;BME280;64832;45.274;5.880;2023-11-19T10:50:40;99457.94;;;19.99;50.33
76106;BME280;64832;45.274;5.880;2023-11-19T10:53:07;99462.06;;;20.02;50.30
76106;BME280;64832;45.274;5.880;2023-11-19T10:55:35;99451.22;;;20.02;50.17
76106;BME280;64832;45.274;5.880;2023-11-19T10:58:02;99452.50;;;20.11;50.36
76106;BME280;64832;45.274;5.880;2023-11-19T11:00:29;99452.03;;;20.14;50.27
76106;BME280;64832;45.274;5.880;2023-11-19T11:03:01;99450.72;;;20.16;50.13
76106;BME280;64832;45.274;5.880;2023-11-19T11:05:29;99445.91;;;20.18;49.87
76106;BME280;64832;45.274;5.880;2023-11-19T11:07:58;99451.09;;;20.20;49.88
76106;BME280;64832;45.274;5.880;2023-11-19T11:10:26;99445.19;;;20.23;49.65
76106;BME280;64832;45.274;5.880;2023-11-19T11:12:52;99441.00;;;20.27;49.72
76106;BME280;64832;45.274;5.880;2023-11-19T11:15:26;99440.28;;;20.31;49.59
76106;BME280;64832;45.274;5.880;2023-11-19T11:17:59;99434.38;;;20.34;49.53
76106;BME280;64832;45.274;5.880;2023-11-19T11:20:30;99430.09;;;20.38;49.50
76106;BME280;64832;45.274;5.880;2023-11-19T11:31:09;99420.66;;;20.52;49.16
76106;BME280;64832;45.274;5.880;2023-11-19T11:38:35;99426.19;;;20.58;49.23
76106;BME280;64832;45.274;5.880;2023-11-19T11:41:15;99426.81;;;20.60;49.20
76106;BME280;64832;45.274;5.880;2023-11-19T11:43:45;99423.00;;;20.61;49.05
76106;BME280;64832;45.274;5.880;2023-11-19T11:49:06;99423.47;;;20.69;48.98
76106;BME280;64832;45.274;5.880;2023-11-19T11:57:13;99432.25;;;20.60;49.17
76106;BME280;64832;45.274;5.880;2023-11-19T12:02:11;99429.75;;;20.58;48.94
76106;BME280;64832;45.274;5.880;2023-11-19T12:04:38;99425.63;;;20.56;49.23
76106;BME280;64832;45.274;5.880;2023-11-19T12:09:30;99414.28;;;20.47;49.28
76106;BME280;64832;45.274;5.880;2023-11-19T12:17:47;99398.44;;;20.44;49.22
76106;BME280;64832;45.274;5.880;2023-11-19T12:20:15;99398.59;;;20.37;49.64
76106;BME280;64832;45.274;5.880;2023-11-19T12:22:42;99393.72;;;20.39;49.24
76106;BME280;64832;45.274;5.880;2023-11-19T12:25:09;99393.84;;;20.44;49.35
76106;BME280;64832;45.274;5.880;2023-11-19T12:27:39;99398.69;;;20.54;49.15
76106;BME280;64832;45.274;5.880;2023-11-19T12:30:05;99387.91;;;20.59;48.85
76106;BME280;64832;45.274;5.880;2023-11-19T12:32:38;99373.59;;;20.64;48.93
76106;BME280;64832;45.274;5.880;2023-11-19T12:35:04;99378.56;;;20.67;49.00
76106;BME280;64832;45.274;5.880;2023-11-19T12:37:29;99368.53;;;20.67;49.12
76106;BME280;64832;45.274;5.880;2023-11-19T12:39:57;99358.03;;;20.59;49.11
76106;BME280;64832;45.274;5.880;2023-11-19T12:42:35;99373.69;;;20.69;49.12
76106;BME280;64832;45.274;5.880;2023-11-19T12:45:00;99355.19;;;20.66;49.19
76106;BME280;64832;45.274;5.880;2023-11-19T12:47:25;99368.72;;;20.77;49.24
76106;BME280;64832;45.274;5.880;2023-11-19T12:49:57;99368.81;;;20.82;49.35
76106;BME280;64832;45.274;5.880;2023-11-19T12:52:23;99364.56;;;20.86;49.25
76106;BME280;64832;45.274;5.880;2023-11-19T12:54:51;99363.84;;;20.91;49.44
76106;BME280;64832;45.274;5.880;2023-11-19T12:57:17;99365.84;;;20.95;49.22
76106;BME280;64832;45.274;5.880;2023-11-19T12:59:54;99371.88;;;20.97;49.38
76106;BME280;64832;45.274;5.880;2023-11-19T13:02:21;99374.31;;;20.99;49.07
76106;BME280;64832;45.274;5.880;2023-11-19T13:04:46;99360.72;;;20.99;49.06
76106;BME280;64832;45.274;5.880;2023-11-19T13:07:11;99362.88;;;20.97;49.07
76106;BME280;64832;45.274;5.880;2023-11-19T13:09:37;99360.41;;;20.95;49.08
76106;BME280;64832;45.274;5.880;2023-11-19T13:12:12;99362.03;;;20.96;48.97
76106;BME280;64832;45.274;5.880;2023-11-19T13:14:39;99352.47;;;20.94;49.11
76106;BME280;64832;45.274;5.880;2023-11-19T13:17:07;99339.84;;;20.88;49.06
76106;BME280;64832;45.274;5.880;2023-11-19T13:19:32;99347.19;;;20.87;49.20
76106;BME280;64832;45.274;5.880;2023-11-19T13:21:58;99345.06;;;20.89;48.92
76106;BME280;64832;45.274;5.880;2023-11-19T13:24:23;99337.25;;;20.93;48.95
76106;BME280;64832;45.274;5.880;2023-11-19T13:26:48;99341.00;;;20.92;48.96
76106;BME280;64832;45.274;5.880;2023-11-19T13:29:14;99339.22;;;20.97;49.01
76106;BME280;64832;45.274;5.880;2023-11-19T13:31:39;99330.31;;;21.02;48.80
76106;BME280;64832;45.274;5.880;2023-11-19T13:34:04;99327.94;;;21.05;48.63